Webcam Flughafen St.Gallen-Altenrhein

Live-Bilder und Zeitraffer LSZR / ACH.

 

Live aus Altenrhein
LIVE
LSZR 012250Z AUTO VRB02KT CAVOK 00/M03 Q1015
Zeitraffer heute
2020-04-02 00:14:49
LSZR 012150Z AUTO 22002KT CAVOK 00/M03 Q1015